sensor_id;sensor_type;location;lat;lon;timestamp;P1;durP1;ratioP1;P2;durP2;ratioP2
73023;SDS011;72676;47.526;8.538;2024-03-07T00:00:05;29.50;;;15.27;;
73023;SDS011;72676;47.526;8.538;2024-03-07T00:02:44;25.87;;;14.73;;
73023;SDS011;72676;47.526;8.538;2024-03-07T00:05:11;27.63;;;14.00;;
73023;SDS011;72676;47.526;8.538;2024-03-07T00:07:42;28.40;;;14.73;;
73023;SDS011;72676;47.526;8.538;2024-03-07T00:10:08;26.40;;;14.03;;
73023;SDS011;72676;47.526;8.538;2024-03-07T00:12:36;27.80;;;14.37;;
73023;SDS011;72676;47.526;8.538;2024-03-07T00:15:05;28.93;;;14.60;;
73023;SDS011;72676;47.526;8.538;2024-03-07T00:17:37;29.83;;;15.97;;
73023;SDS011;72676;47.526;8.538;2024-03-07T00:20:05;28.40;;;15.40;;
73023;SDS011;72676;47.526;8.538;2024-03-07T00:22:35;27.20;;;15.00;;
73023;SDS011;72676;47.526;8.538;2024-03-07T00:25:02;28.40;;;15.20;;
73023;SDS011;72676;47.526;8.538;2024-03-07T00:27:31;26.50;;;14.13;;
73023;SDS011;72676;47.526;8.538;2024-03-07T00:30:01;24.13;;;13.30;;
73023;SDS011;72676;47.526;8.538;2024-03-07T00:32:31;25.10;;;13.47;;
73023;SDS011;72676;47.526;8.538;2024-03-07T00:35:02;27.10;;;13.87;;
73023;SDS011;72676;47.526;8.538;2024-03-07T00:37:31;29.23;;;15.07;;
73023;SDS011;72676;47.526;8.538;2024-03-07T00:39:58;27.73;;;15.43;;
73023;SDS011;72676;47.526;8.538;2024-03-07T00:42:24;28.80;;;14.87;;
73023;SDS011;72676;47.526;8.538;2024-03-07T00:44:52;27.57;;;15.27;;
73023;SDS011;72676;47.526;8.538;2024-03-07T00:47:18;26.33;;;13.23;;
73023;SDS011;72676;47.526;8.538;2024-03-07T00:49:45;33.20;;;16.20;;
73023;SDS011;72676;47.526;8.538;2024-03-07T00:52:15;27.80;;;15.07;;
73023;SDS011;72676;47.526;8.538;2024-03-07T00:54:42;29.20;;;14.97;;
73023;SDS011;72676;47.526;8.538;2024-03-07T00:57:08;27.10;;;14.87;;
73023;SDS011;72676;47.526;8.538;2024-03-07T00:59:35;28.60;;;15.17;;
73023;SDS011;72676;47.526;8.538;2024-03-07T01:02:02;28.63;;;15.10;;
73023;SDS011;72676;47.526;8.538;2024-03-07T01:04:28;28.33;;;15.80;;
73023;SDS011;72676;47.526;8.538;2024-03-07T01:06:57;30.10;;;15.20;;
73023;SDS011;72676;47.526;8.538;2024-03-07T01:09:27;28.40;;;15.60;;
73023;SDS011;72676;47.526;8.538;2024-03-07T01:11:57;30.23;;;16.20;;
73023;SDS011;72676;47.526;8.538;2024-03-07T01:14:26;26.87;;;14.90;;
73023;SDS011;72676;47.526;8.538;2024-03-07T01:16:52;28.00;;;15.43;;
73023;SDS011;72676;47.526;8.538;2024-03-07T01:19:19;28.50;;;14.83;;
73023;SDS011;72676;47.526;8.538;2024-03-07T01:21:46;29.90;;;15.87;;
73023;SDS011;72676;47.526;8.538;2024-03-07T01:24:12;28.03;;;15.00;;
73023;SDS011;72676;47.526;8.538;2024-03-07T01:26:39;26.33;;;13.60;;
73023;SDS011;72676;47.526;8.538;2024-03-07T01:29:06;27.00;;;14.60;;
73023;SDS011;72676;47.526;8.538;2024-03-07T01:31:33;27.53;;;14.50;;
73023;SDS011;72676;47.526;8.538;2024-03-07T01:34:00;31.40;;;16.50;;
73023;SDS011;72676;47.526;8.538;2024-03-07T01:36:26;30.53;;;16.57;;
73023;SDS011;72676;47.526;8.538;2024-03-07T01:38:53;28.67;;;15.07;;
73023;SDS011;72676;47.526;8.538;2024-03-07T01:41:19;31.63;;;15.70;;
73023;SDS011;72676;47.526;8.538;2024-03-07T01:43:46;31.10;;;16.00;;
73023;SDS011;72676;47.526;8.538;2024-03-07T01:46:12;30.70;;;16.07;;
73023;SDS011;72676;47.526;8.538;2024-03-07T01:48:40;33.30;;;17.30;;
73023;SDS011;72676;47.526;8.538;2024-03-07T01:51:07;34.00;;;16.90;;
73023;SDS011;72676;47.526;8.538;2024-03-07T01:53:34;32.53;;;17.47;;
73023;SDS011;72676;47.526;8.538;2024-03-07T01:56:01;27.83;;;14.97;;
73023;SDS011;72676;47.526;8.538;2024-03-07T01:58:30;37.37;;;16.93;;
73023;SDS011;72676;47.526;8.538;2024-03-07T02:00:58;35.80;;;18.30;;
73023;SDS011;72676;47.526;8.538;2024-03-07T02:03:26;32.53;;;16.83;;
73023;SDS011;72676;47.526;8.538;2024-03-07T02:05:53;32.13;;;16.97;;
73023;SDS011;72676;47.526;8.538;2024-03-07T02:08:19;31.10;;;16.10;;
73023;SDS011;72676;47.526;8.538;2024-03-07T02:10:46;32.70;;;16.47;;
73023;SDS011;72676;47.526;8.538;2024-03-07T02:13:13;32.67;;;16.67;;
73023;SDS011;72676;47.526;8.538;2024-03-07T02:15:39;29.03;;;15.17;;
73023;SDS011;72676;47.526;8.538;2024-03-07T02:18:06;30.50;;;14.87;;
73023;SDS011;72676;47.526;8.538;2024-03-07T02:20:33;24.60;;;13.93;;
73023;SDS011;72676;47.526;8.538;2024-03-07T02:22:59;28.77;;;14.60;;
73023;SDS011;72676;47.526;8.538;2024-03-07T02:25:26;31.00;;;15.17;;
73023;SDS011;72676;47.526;8.538;2024-03-07T02:27:53;26.90;;;14.30;;
73023;SDS011;72676;47.526;8.538;2024-03-07T02:30:20;26.97;;;14.40;;
73023;SDS011;72676;47.526;8.538;2024-03-07T02:32:46;34.80;;;15.17;;
73023;SDS011;72676;47.526;8.538;2024-03-07T02:35:18;28.20;;;14.57;;
73023;SDS011;72676;47.526;8.538;2024-03-07T02:37:45;30.93;;;15.17;;
73023;SDS011;72676;47.526;8.538;2024-03-07T02:40:12;28.57;;;14.53;;
73023;SDS011;72676;47.526;8.538;2024-03-07T02:42:40;29.47;;;15.10;;
73023;SDS011;72676;47.526;8.538;2024-03-07T02:45:06;25.27;;;14.03;;
73023;SDS011;72676;47.526;8.538;2024-03-07T02:47:33;30.00;;;15.63;;
73023;SDS011;72676;47.526;8.538;2024-03-07T02:49:59;30.33;;;15.70;;
73023;SDS011;72676;47.526;8.538;2024-03-07T02:52:26;29.13;;;15.73;;
73023;SDS011;72676;47.526;8.538;2024-03-07T02:54:52;30.07;;;15.60;;
73023;SDS011;72676;47.526;8.538;2024-03-07T02:57:19;34.50;;;18.03;;
73023;SDS011;72676;47.526;8.538;2024-03-07T02:59:45;40.20;;;20.90;;
73023;SDS011;72676;47.526;8.538;2024-03-07T03:02:12;34.57;;;17.87;;
73023;SDS011;72676;47.526;8.538;2024-03-07T03:04:38;53.33;;;17.37;;
73023;SDS011;72676;47.526;8.538;2024-03-07T03:07:05;35.00;;;18.00;;
73023;SDS011;72676;47.526;8.538;2024-03-07T03:09:33;34.53;;;16.40;;
73023;SDS011;72676;47.526;8.538;2024-03-07T03:11:59;39.43;;;18.40;;
73023;SDS011;72676;47.526;8.538;2024-03-07T03:14:26;33.00;;;17.70;;
73023;SDS011;72676;47.526;8.538;2024-03-07T03:16:53;33.03;;;17.17;;
73023;SDS011;72676;47.526;8.538;2024-03-07T03:19:20;38.20;;;17.63;;
73023;SDS011;72676;47.526;8.538;2024-03-07T03:21:46;31.60;;;14.97;;
73023;SDS011;72676;47.526;8.538;2024-03-07T03:24:13;28.50;;;15.40;;
73023;SDS011;72676;47.526;8.538;2024-03-07T03:26:41;28.30;;;14.87;;
73023;SDS011;72676;47.526;8.538;2024-03-07T03:29:08;26.37;;;14.10;;
73023;SDS011;72676;47.526;8.538;2024-03-07T03:31:37;25.70;;;13.17;;
73023;SDS011;72676;47.526;8.538;2024-03-07T03:34:04;26.27;;;13.50;;
73023;SDS011;72676;47.526;8.538;2024-03-07T03:36:31;28.97;;;14.07;;
73023;SDS011;72676;47.526;8.538;2024-03-07T03:38:57;27.77;;;13.77;;
73023;SDS011;72676;47.526;8.538;2024-03-07T03:41:24;23.20;;;12.33;;
73023;SDS011;72676;47.526;8.538;2024-03-07T03:43:51;29.47;;;14.00;;
73023;SDS011;72676;47.526;8.538;2024-03-07T03:46:17;28.63;;;13.30;;
73023;SDS011;72676;47.526;8.538;2024-03-07T03:48:44;29.53;;;14.73;;
73023;SDS011;72676;47.526;8.538;2024-03-07T03:51:10;27.53;;;14.90;;
73023;SDS011;72676;47.526;8.538;2024-03-07T03:53:39;23.97;;;14.03;;
73023;SDS011;72676;47.526;8.538;2024-03-07T03:56:09;27.03;;;13.90;;
73023;SDS011;72676;47.526;8.538;2024-03-07T03:58:39;29.20;;;14.50;;
73023;SDS011;72676;47.526;8.538;2024-03-07T04:01:06;30.87;;;14.37;;
73023;SDS011;72676;47.526;8.538;2024-03-07T04:03:34;30.53;;;14.17;;
73023;SDS011;72676;47.526;8.538;2024-03-07T04:06:00;27.77;;;14.60;;
73023;SDS011;72676;47.526;8.538;2024-03-07T04:08:27;27.40;;;14.47;;
73023;SDS011;72676;47.526;8.538;2024-03-07T04:10:54;33.27;;;16.40;;
73023;SDS011;72676;47.526;8.538;2024-03-07T04:13:20;34.57;;;15.70;;
73023;SDS011;72676;47.526;8.538;2024-03-07T04:15:48;29.47;;;14.27;;
73023;SDS011;72676;47.526;8.538;2024-03-07T04:18:15;28.33;;;15.37;;
73023;SDS011;72676;47.526;8.538;2024-03-07T04:20:42;30.87;;;15.33;;
73023;SDS011;72676;47.526;8.538;2024-03-07T04:23:10;33.10;;;15.57;;
73023;SDS011;72676;47.526;8.538;2024-03-07T04:25:38;34.67;;;16.27;;
73023;SDS011;72676;47.526;8.538;2024-03-07T04:28:04;36.20;;;17.23;;
73023;SDS011;72676;47.526;8.538;2024-03-07T04:30:31;35.13;;;16.90;;
73023;SDS011;72676;47.526;8.538;2024-03-07T04:32:58;43.00;;;19.10;;
73023;SDS011;72676;47.526;8.538;2024-03-07T04:35:25;36.17;;;16.77;;
73023;SDS011;72676;47.526;8.538;2024-03-07T04:37:51;32.90;;;16.80;;
73023;SDS011;72676;47.526;8.538;2024-03-07T04:40:19;38.40;;;16.10;;
73023;SDS011;72676;47.526;8.538;2024-03-07T04:42:46;37.00;;;17.57;;
73023;SDS011;72676;47.526;8.538;2024-03-07T04:45:17;34.83;;;16.50;;
73023;SDS011;72676;47.526;8.538;2024-03-07T04:47:45;41.50;;;19.10;;
73023;SDS011;72676;47.526;8.538;2024-03-07T04:50:13;40.83;;;18.10;;
73023;SDS011;72676;47.526;8.538;2024-03-07T04:52:43;40.23;;;18.60;;
73023;SDS011;72676;47.526;8.538;2024-03-07T04:55:10;40.67;;;18.50;;
73023;SDS011;72676;47.526;8.538;2024-03-07T04:57:37;44.83;;;18.70;;
73023;SDS011;72676;47.526;8.538;2024-03-07T05:00:06;43.20;;;17.87;;
73023;SDS011;72676;47.526;8.538;2024-03-07T05:02:42;43.47;;;18.70;;
73023;SDS011;72676;47.526;8.538;2024-03-07T05:05:09;41.20;;;19.33;;
73023;SDS011;72676;47.526;8.538;2024-03-07T05:07:36;46.07;;;19.57;;
73023;SDS011;72676;47.526;8.538;2024-03-07T05:10:03;41.40;;;18.93;;
73023;SDS011;72676;47.526;8.538;2024-03-07T05:12:31;47.57;;;18.60;;
73023;SDS011;72676;47.526;8.538;2024-03-07T05:14:57;44.53;;;19.53;;
73023;SDS011;72676;47.526;8.538;2024-03-07T05:17:24;45.43;;;17.70;;
73023;SDS011;72676;47.526;8.538;2024-03-07T05:19:51;42.23;;;17.17;;
73023;SDS011;72676;47.526;8.538;2024-03-07T05:22:17;40.30;;;16.97;;
73023;SDS011;72676;47.526;8.538;2024-03-07T05:24:46;38.53;;;17.07;;
73023;SDS011;72676;47.526;8.538;2024-03-07T05:27:14;39.47;;;17.20;;
73023;SDS011;72676;47.526;8.538;2024-03-07T05:29:41;42.70;;;18.83;;
73023;SDS011;72676;47.526;8.538;2024-03-07T05:32:24;38.73;;;17.70;;
73023;SDS011;72676;47.526;8.538;2024-03-07T05:34:52;39.83;;;16.70;;
73023;SDS011;72676;47.526;8.538;2024-03-07T05:37:22;39.00;;;18.63;;
73023;SDS011;72676;47.526;8.538;2024-03-07T05:39:50;36.30;;;16.17;;
73023;SDS011;72676;47.526;8.538;2024-03-07T05:42:17;36.67;;;16.90;;
73023;SDS011;72676;47.526;8.538;2024-03-07T05:44:44;40.40;;;18.20;;
73023;SDS011;72676;47.526;8.538;2024-03-07T05:47:11;40.00;;;16.97;;
73023;SDS011;72676;47.526;8.538;2024-03-07T05:49:40;37.30;;;16.77;;
73023;SDS011;72676;47.526;8.538;2024-03-07T05:52:06;36.13;;;16.73;;
73023;SDS011;72676;47.526;8.538;2024-03-07T05:54:33;36.97;;;16.80;;
73023;SDS011;72676;47.526;8.538;2024-03-07T05:57:00;28.93;;;14.60;;
73023;SDS011;72676;47.526;8.538;2024-03-07T05:59:27;32.20;;;14.53;;
73023;SDS011;72676;47.526;8.538;2024-03-07T06:01:59;27.77;;;14.07;;
73023;SDS011;72676;47.526;8.538;2024-03-07T06:04:26;30.33;;;15.30;;
73023;SDS011;72676;47.526;8.538;2024-03-07T06:06:52;30.63;;;15.33;;
73023;SDS011;72676;47.526;8.538;2024-03-07T06:09:20;33.03;;;15.53;;
73023;SDS011;72676;47.526;8.538;2024-03-07T06:11:48;28.90;;;15.30;;
73023;SDS011;72676;47.526;8.538;2024-03-07T06:14:15;47.60;;;22.63;;
73023;SDS011;72676;47.526;8.538;2024-03-07T06:16:43;28.87;;;14.73;;
73023;SDS011;72676;47.526;8.538;2024-03-07T06:19:10;36.10;;;17.67;;
73023;SDS011;72676;47.526;8.538;2024-03-07T06:21:38;31.73;;;16.33;;
73023;SDS011;72676;47.526;8.538;2024-03-07T06:24:07;30.57;;;15.60;;
73023;SDS011;72676;47.526;8.538;2024-03-07T06:26:37;28.07;;;14.60;;
73023;SDS011;72676;47.526;8.538;2024-03-07T06:29:13;29.07;;;14.60;;
73023;SDS011;72676;47.526;8.538;2024-03-07T06:31:42;27.90;;;14.30;;
73023;SDS011;72676;47.526;8.538;2024-03-07T06:34:09;28.43;;;14.43;;
73023;SDS011;72676;47.526;8.538;2024-03-07T06:36:36;31.13;;;15.27;;
73023;SDS011;72676;47.526;8.538;2024-03-07T06:39:03;29.70;;;15.20;;
73023;SDS011;72676;47.526;8.538;2024-03-07T06:41:33;30.43;;;15.70;;
73023;SDS011;72676;47.526;8.538;2024-03-07T06:44:00;31.47;;;16.23;;
73023;SDS011;72676;47.526;8.538;2024-03-07T06:46:28;28.57;;;14.67;;
73023;SDS011;72676;47.526;8.538;2024-03-07T06:48:55;28.77;;;13.73;;
73023;SDS011;72676;47.526;8.538;2024-03-07T06:51:24;30.03;;;15.37;;
73023;SDS011;72676;47.526;8.538;2024-03-07T06:53:51;30.23;;;15.13;;
73023;SDS011;72676;47.526;8.538;2024-03-07T06:56:18;29.27;;;15.60;;
73023;SDS011;72676;47.526;8.538;2024-03-07T06:58:44;33.90;;;16.03;;
73023;SDS011;72676;47.526;8.538;2024-03-07T07:01:14;35.37;;;17.17;;
73023;SDS011;72676;47.526;8.538;2024-03-07T07:03:42;29.60;;;15.63;;
73023;SDS011;72676;47.526;8.538;2024-03-07T07:06:10;32.50;;;15.87;;
73023;SDS011;72676;47.526;8.538;2024-03-07T07:08:36;31.93;;;14.70;;
73023;SDS011;72676;47.526;8.538;2024-03-07T07:11:03;30.17;;;14.43;;
73023;SDS011;72676;47.526;8.538;2024-03-07T07:13:30;32.77;;;16.00;;
73023;SDS011;72676;47.526;8.538;2024-03-07T07:15:57;32.30;;;14.87;;
73023;SDS011;72676;47.526;8.538;2024-03-07T07:18:24;30.13;;;15.50;;
73023;SDS011;72676;47.526;8.538;2024-03-07T07:20:51;31.60;;;13.67;;
73023;SDS011;72676;47.526;8.538;2024-03-07T07:23:20;32.37;;;16.33;;
73023;SDS011;72676;47.526;8.538;2024-03-07T07:25:47;34.60;;;16.37;;
73023;SDS011;72676;47.526;8.538;2024-03-07T07:28:13;30.10;;;14.43;;
73023;SDS011;72676;47.526;8.538;2024-03-07T07:30:41;27.07;;;12.90;;
73023;SDS011;72676;47.526;8.538;2024-03-07T07:33:11;31.70;;;15.53;;
73023;SDS011;72676;47.526;8.538;2024-03-07T07:35:38;29.07;;;15.53;;
73023;SDS011;72676;47.526;8.538;2024-03-07T07:38:05;30.07;;;15.80;;
73023;SDS011;72676;47.526;8.538;2024-03-07T07:40:33;29.73;;;14.80;;
73023;SDS011;72676;47.526;8.538;2024-03-07T07:43:00;27.10;;;13.80;;
73023;SDS011;72676;47.526;8.538;2024-03-07T07:45:27;30.57;;;15.07;;
73023;SDS011;72676;47.526;8.538;2024-03-07T07:47:54;28.57;;;14.23;;
73023;SDS011;72676;47.526;8.538;2024-03-07T07:50:22;31.60;;;15.73;;
73023;SDS011;72676;47.526;8.538;2024-03-07T07:52:51;26.70;;;14.27;;
73023;SDS011;72676;47.526;8.538;2024-03-07T07:55:28;30.60;;;15.23;;
73023;SDS011;72676;47.526;8.538;2024-03-07T07:57:59;32.50;;;14.07;;
73023;SDS011;72676;47.526;8.538;2024-03-07T08:00:27;29.90;;;13.17;;
73023;SDS011;72676;47.526;8.538;2024-03-07T08:02:56;29.33;;;12.97;;
73023;SDS011;72676;47.526;8.538;2024-03-07T08:05:31;28.53;;;13.60;;
73023;SDS011;72676;47.526;8.538;2024-03-07T08:08:08;30.57;;;14.30;;
73023;SDS011;72676;47.526;8.538;2024-03-07T08:10:38;32.37;;;14.77;;
73023;SDS011;72676;47.526;8.538;2024-03-07T08:13:10;33.63;;;14.00;;
73023;SDS011;72676;47.526;8.538;2024-03-07T08:15:39;30.77;;;14.40;;
73023;SDS011;72676;47.526;8.538;2024-03-07T08:18:05;28.30;;;15.17;;
73023;SDS011;72676;47.526;8.538;2024-03-07T08:20:37;31.27;;;15.37;;
73023;SDS011;72676;47.526;8.538;2024-03-07T08:23:06;37.37;;;15.90;;
73023;SDS011;72676;47.526;8.538;2024-03-07T08:25:33;37.03;;;16.33;;
73023;SDS011;72676;47.526;8.538;2024-03-07T08:27:59;30.57;;;14.33;;
73023;SDS011;72676;47.526;8.538;2024-03-07T08:30:27;34.53;;;15.90;;
73023;SDS011;72676;47.526;8.538;2024-03-07T08:32:55;31.00;;;14.77;;
73023;SDS011;72676;47.526;8.538;2024-03-07T08:35:22;30.40;;;15.07;;
73023;SDS011;72676;47.526;8.538;2024-03-07T08:37:53;34.40;;;16.20;;
73023;SDS011;72676;47.526;8.538;2024-03-07T08:40:22;35.53;;;16.77;;
73023;SDS011;72676;47.526;8.538;2024-03-07T08:42:55;37.37;;;16.00;;
73023;SDS011;72676;47.526;8.538;2024-03-07T08:45:21;38.37;;;16.27;;
73023;SDS011;72676;47.526;8.538;2024-03-07T08:47:49;54.40;;;17.70;;
73023;SDS011;72676;47.526;8.538;2024-03-07T08:50:17;52.77;;;17.43;;
73023;SDS011;72676;47.526;8.538;2024-03-07T08:52:44;40.63;;;16.73;;
73023;SDS011;72676;47.526;8.538;2024-03-07T08:55:22;39.20;;;16.40;;
73023;SDS011;72676;47.526;8.538;2024-03-07T08:57:51;37.77;;;16.20;;
73023;SDS011;72676;47.526;8.538;2024-03-07T09:00:18;44.67;;;18.10;;
73023;SDS011;72676;47.526;8.538;2024-03-07T09:02:54;36.63;;;17.20;;
73023;SDS011;72676;47.526;8.538;2024-03-07T09:05:24;39.90;;;17.50;;
73023;SDS011;72676;47.526;8.538;2024-03-07T09:07:52;39.43;;;15.60;;
73023;SDS011;72676;47.526;8.538;2024-03-07T09:10:20;35.37;;;16.33;;
73023;SDS011;72676;47.526;8.538;2024-03-07T09:12:48;39.90;;;18.60;;
73023;SDS011;72676;47.526;8.538;2024-03-07T09:15:16;38.70;;;17.03;;
73023;SDS011;72676;47.526;8.538;2024-03-07T09:17:43;36.20;;;15.70;;
73023;SDS011;72676;47.526;8.538;2024-03-07T09:20:10;37.53;;;16.33;;
73023;SDS011;72676;47.526;8.538;2024-03-07T09:22:44;38.53;;;16.23;;
73023;SDS011;72676;47.526;8.538;2024-03-07T09:25:11;48.83;;;19.37;;
73023;SDS011;72676;47.526;8.538;2024-03-07T09:27:42;39.90;;;16.17;;
73023;SDS011;72676;47.526;8.538;2024-03-07T09:30:09;46.60;;;18.70;;
73023;SDS011;72676;47.526;8.538;2024-03-07T09:32:41;43.60;;;17.00;;
73023;SDS011;72676;47.526;8.538;2024-03-07T09:35:08;38.67;;;16.93;;
73023;SDS011;72676;47.526;8.538;2024-03-07T09:37:41;39.23;;;17.33;;
73023;SDS011;72676;47.526;8.538;2024-03-07T09:40:10;38.07;;;16.40;;
73023;SDS011;72676;47.526;8.538;2024-03-07T09:42:47;33.27;;;16.17;;
73023;SDS011;72676;47.526;8.538;2024-03-07T09:45:19;34.47;;;15.63;;
73023;SDS011;72676;47.526;8.538;2024-03-07T09:47:50;37.17;;;16.47;;
73023;SDS011;72676;47.526;8.538;2024-03-07T09:50:19;33.40;;;15.50;;
73023;SDS011;72676;47.526;8.538;2024-03-07T09:52:50;44.67;;;16.53;;
73023;SDS011;72676;47.526;8.538;2024-03-07T09:55:20;32.00;;;15.83;;
73023;SDS011;72676;47.526;8.538;2024-03-07T09:57:48;41.87;;;17.80;;
73023;SDS011;72676;47.526;8.538;2024-03-07T10:00:17;45.23;;;18.47;;
73023;SDS011;72676;47.526;8.538;2024-03-07T10:02:59;42.70;;;18.37;;
73023;SDS011;72676;47.526;8.538;2024-03-07T10:05:28;37.37;;;17.10;;
73023;SDS011;72676;47.526;8.538;2024-03-07T10:07:57;40.83;;;16.90;;
73023;SDS011;72676;47.526;8.538;2024-03-07T10:10:24;41.47;;;18.00;;
73023;SDS011;72676;47.526;8.538;2024-03-07T10:12:52;45.10;;;17.97;;
73023;SDS011;72676;47.526;8.538;2024-03-07T10:15:19;39.00;;;16.27;;
73023;SDS011;72676;47.526;8.538;2024-03-07T10:17:46;40.20;;;18.17;;
73023;SDS011;72676;47.526;8.538;2024-03-07T10:20:14;39.27;;;16.57;;
73023;SDS011;72676;47.526;8.538;2024-03-07T10:22:44;40.27;;;17.97;;
73023;SDS011;72676;47.526;8.538;2024-03-07T10:25:11;40.30;;;18.70;;
73023;SDS011;72676;47.526;8.538;2024-03-07T10:27:38;40.13;;;18.37;;
73023;SDS011;72676;47.526;8.538;2024-03-07T10:30:05;46.57;;;19.27;;
73023;SDS011;72676;47.526;8.538;2024-03-07T10:32:35;36.83;;;18.67;;
73023;SDS011;72676;47.526;8.538;2024-03-07T10:35:02;38.80;;;17.90;;
73023;SDS011;72676;47.526;8.538;2024-03-07T10:37:29;42.73;;;18.80;;
73023;SDS011;72676;47.526;8.538;2024-03-07T10:39:57;39.77;;;16.93;;
73023;SDS011;72676;47.526;8.538;2024-03-07T10:42:23;37.83;;;17.53;;
73023;SDS011;72676;47.526;8.538;2024-03-07T10:44:58;41.87;;;19.40;;
73023;SDS011;72676;47.526;8.538;2024-03-07T10:47:30;40.03;;;17.77;;
73023;SDS011;72676;47.526;8.538;2024-03-07T11:01:12;37.87;;;18.33;;
73023;SDS011;72676;47.526;8.538;2024-03-07T11:03:40;40.13;;;19.20;;
73023;SDS011;72676;47.526;8.538;2024-03-07T11:06:08;36.30;;;17.33;;
73023;SDS011;72676;47.526;8.538;2024-03-07T11:08:38;35.20;;;17.63;;
73023;SDS011;72676;47.526;8.538;2024-03-07T11:11:05;40.27;;;16.33;;
73023;SDS011;72676;47.526;8.538;2024-03-07T11:13:33;33.57;;;16.57;;
73023;SDS011;72676;47.526;8.538;2024-03-07T11:16:00;39.83;;;17.43;;
73023;SDS011;72676;47.526;8.538;2024-03-07T11:18:29;33.10;;;16.60;;
73023;SDS011;72676;47.526;8.538;2024-03-07T11:20:56;38.90;;;18.33;;
73023;SDS011;72676;47.526;8.538;2024-03-07T11:26:03;31.00;;;15.80;;
73023;SDS011;72676;47.526;8.538;2024-03-07T11:28:38;39.10;;;17.00;;
73023;SDS011;72676;47.526;8.538;2024-03-07T11:31:09;32.73;;;15.60;;
73023;SDS011;72676;47.526;8.538;2024-03-07T11:33:43;34.60;;;17.23;;
73023;SDS011;72676;47.526;8.538;2024-03-07T11:36:44;34.53;;;16.63;;
73023;SDS011;72676;47.526;8.538;2024-03-07T11:42:29;35.13;;;17.23;;
73023;SDS011;72676;47.526;8.538;2024-03-07T11:44:57;40.40;;;17.17;;
73023;SDS011;72676;47.526;8.538;2024-03-07T11:47:25;38.13;;;17.50;;
73023;SDS011;72676;47.526;8.538;2024-03-07T11:49:56;36.97;;;16.80;;
73023;SDS011;72676;47.526;8.538;2024-03-07T11:52:24;36.37;;;17.27;;
73023;SDS011;72676;47.526;8.538;2024-03-07T11:54:53;39.30;;;17.93;;
73023;SDS011;72676;47.526;8.538;2024-03-07T11:57:19;39.93;;;17.10;;
73023;SDS011;72676;47.526;8.538;2024-03-07T11:59:52;40.63;;;19.10;;
73023;SDS011;72676;47.526;8.538;2024-03-07T12:02:19;36.67;;;18.40;;
73023;SDS011;72676;47.526;8.538;2024-03-07T12:04:49;40.17;;;18.20;;
73023;SDS011;72676;47.526;8.538;2024-03-07T12:07:16;38.80;;;17.37;;
73023;SDS011;72676;47.526;8.538;2024-03-07T12:09:49;40.63;;;18.90;;
73023;SDS011;72676;47.526;8.538;2024-03-07T12:12:22;40.57;;;19.57;;
73023;SDS011;72676;47.526;8.538;2024-03-07T12:14:50;37.93;;;18.87;;
73023;SDS011;72676;47.526;8.538;2024-03-07T12:17:20;37.30;;;17.50;;
73023;SDS011;72676;47.526;8.538;2024-03-07T12:19:47;36.97;;;18.40;;
73023;SDS011;72676;47.526;8.538;2024-03-07T12:22:14;46.83;;;17.80;;
73023;SDS011;72676;47.526;8.538;2024-03-07T12:24:41;38.47;;;17.53;;
73023;SDS011;72676;47.526;8.538;2024-03-07T12:27:12;38.30;;;17.40;;
73023;SDS011;72676;47.526;8.538;2024-03-07T12:29:39;36.37;;;18.63;;
73023;SDS011;72676;47.526;8.538;2024-03-07T12:32:09;36.77;;;18.17;;
73023;SDS011;72676;47.526;8.538;2024-03-07T12:34:40;40.00;;;18.43;;
73023;SDS011;72676;47.526;8.538;2024-03-07T12:37:11;39.27;;;17.73;;
73023;SDS011;72676;47.526;8.538;2024-03-07T12:39:43;41.90;;;18.00;;
73023;SDS011;72676;47.526;8.538;2024-03-07T12:42:13;38.43;;;18.87;;
73023;SDS011;72676;47.526;8.538;2024-03-07T12:44:46;38.80;;;18.93;;
73023;SDS011;72676;47.526;8.538;2024-03-07T12:47:13;38.83;;;18.53;;
73023;SDS011;72676;47.526;8.538;2024-03-07T12:49:40;40.07;;;17.17;;
73023;SDS011;72676;47.526;8.538;2024-03-07T12:52:07;35.43;;;17.17;;
73023;SDS011;72676;47.526;8.538;2024-03-07T12:54:34;41.87;;;19.27;;
73023;SDS011;72676;47.526;8.538;2024-03-07T12:57:09;46.83;;;20.20;;
73023;SDS011;72676;47.526;8.538;2024-03-07T12:59:39;37.70;;;17.77;;
73023;SDS011;72676;47.526;8.538;2024-03-07T13:02:07;38.87;;;18.00;;
73023;SDS011;72676;47.526;8.538;2024-03-07T13:04:34;45.43;;;19.73;;
73023;SDS011;72676;47.526;8.538;2024-03-07T13:07:00;44.70;;;20.47;;
73023;SDS011;72676;47.526;8.538;2024-03-07T13:09:30;37.70;;;17.13;;
73023;SDS011;72676;47.526;8.538;2024-03-07T13:11:58;39.97;;;18.60;;
73023;SDS011;72676;47.526;8.538;2024-03-07T13:14:27;43.40;;;19.00;;
73023;SDS011;72676;47.526;8.538;2024-03-07T13:16:59;47.07;;;18.73;;
73023;SDS011;72676;47.526;8.538;2024-03-07T13:19:27;36.13;;;16.87;;
73023;SDS011;72676;47.526;8.538;2024-03-07T13:21:54;44.07;;;20.40;;
73023;SDS011;72676;47.526;8.538;2024-03-07T13:24:24;37.00;;;17.90;;
73023;SDS011;72676;47.526;8.538;2024-03-07T13:26:52;42.13;;;18.90;;
73023;SDS011;72676;47.526;8.538;2024-03-07T13:29:20;37.53;;;19.13;;
73023;SDS011;72676;47.526;8.538;2024-03-07T13:31:53;44.63;;;18.40;;
73023;SDS011;72676;47.526;8.538;2024-03-07T13:34:23;38.57;;;17.53;;
73023;SDS011;72676;47.526;8.538;2024-03-07T13:36:52;39.60;;;19.27;;
73023;SDS011;72676;47.526;8.538;2024-03-07T13:39:18;43.63;;;19.90;;
73023;SDS011;72676;47.526;8.538;2024-03-07T13:41:45;43.10;;;18.53;;
73023;SDS011;72676;47.526;8.538;2024-03-07T13:44:14;39.40;;;18.70;;
73023;SDS011;72676;47.526;8.538;2024-03-07T13:46:41;39.97;;;17.23;;
73023;SDS011;72676;47.526;8.538;2024-03-07T13:49:07;49.50;;;21.83;;
73023;SDS011;72676;47.526;8.538;2024-03-07T13:51:42;49.90;;;19.33;;
73023;SDS011;72676;47.526;8.538;2024-03-07T13:54:29;42.77;;;19.93;;
73023;SDS011;72676;47.526;8.538;2024-03-07T13:57:15;39.20;;;18.23;;
73023;SDS011;72676;47.526;8.538;2024-03-07T14:02:48;41.00;;;19.60;;
73023;SDS011;72676;47.526;8.538;2024-03-07T14:14:04;50.33;;;22.83;;
73023;SDS011;72676;47.526;8.538;2024-03-07T14:16:49;54.37;;;23.37;;
73023;SDS011;72676;47.526;8.538;2024-03-07T14:22:24;59.50;;;25.50;;
73023;SDS011;72676;47.526;8.538;2024-03-07T14:25:09;55.50;;;25.90;;
73023;SDS011;72676;47.526;8.538;2024-03-07T14:27:53;52.27;;;25.37;;
73023;SDS011;72676;47.526;8.538;2024-03-07T14:30:40;56.80;;;25.77;;
73023;SDS011;72676;47.526;8.538;2024-03-07T14:33:20;56.20;;;26.23;;
73023;SDS011;72676;47.526;8.538;2024-03-07T14:41:06;55.60;;;25.77;;
73023;SDS011;72676;47.526;8.538;2024-03-07T14:43:33;64.07;;;26.97;;
73023;SDS011;72676;47.526;8.538;2024-03-07T14:46:00;54.00;;;24.27;;
73023;SDS011;72676;47.526;8.538;2024-03-07T14:48:27;57.17;;;27.37;;
73023;SDS011;72676;47.526;8.538;2024-03-07T14:50:54;60.60;;;28.47;;
73023;SDS011;72676;47.526;8.538;2024-03-07T14:53:21;53.17;;;23.97;;
73023;SDS011;72676;47.526;8.538;2024-03-07T14:55:48;64.60;;;26.03;;
73023;SDS011;72676;47.526;8.538;2024-03-07T14:58:14;56.70;;;26.00;;
73023;SDS011;72676;47.526;8.538;2024-03-07T15:00:42;55.33;;;25.40;;
73023;SDS011;72676;47.526;8.538;2024-03-07T15:03:22;55.23;;;24.83;;
73023;SDS011;72676;47.526;8.538;2024-03-07T15:05:50;57.93;;;25.83;;